sensor_id;sensor_type;location;lat;lon;timestamp;pressure;altitude;pressure_sealevel;temperature;humidity
58821;BME280;70670;52.476;13.334;2024-01-11T00:00:15;102551.84;;;-6.10;81.79
58821;BME280;70670;52.476;13.334;2024-01-11T00:03:01;102496.94;;;-6.57;83.39
58821;BME280;70670;52.476;13.334;2024-01-11T00:05:27;102474.41;;;-6.76;83.26
58821;BME280;70670;52.476;13.334;2024-01-11T00:07:53;102546.34;;;-6.37;83.74
58821;BME280;70670;52.476;13.334;2024-01-11T00:10:18;102549.88;;;-6.37;83.85
58821;BME280;70670;52.476;13.334;2024-01-11T00:12:44;102561.88;;;-6.40;84.13
58821;BME280;70670;52.476;13.334;2024-01-11T00:15:10;102554.47;;;-6.51;84.46
58821;BME280;70670;52.476;13.334;2024-01-11T00:17:36;102531.53;;;-6.59;85.03
58821;BME280;70670;52.476;13.334;2024-01-11T00:20:02;102553.78;;;-6.66;85.61
58821;BME280;70670;52.476;13.334;2024-01-11T00:22:28;102561.25;;;-6.74;85.86
58821;BME280;70670;52.476;13.334;2024-01-11T00:24:53;102555.03;;;-6.77;86.09
58821;BME280;70670;52.476;13.334;2024-01-11T00:27:19;102541.75;;;-6.83;86.66
58821;BME280;70670;52.476;13.334;2024-01-11T00:29:45;102532.41;;;-6.98;86.57
58821;BME280;70670;52.476;13.334;2024-01-11T00:32:10;102536.13;;;-6.93;86.67
58821;BME280;70670;52.476;13.334;2024-01-11T00:34:36;102461.13;;;-7.40;86.81
58821;BME280;70670;52.476;13.334;2024-01-11T00:37:02;102523.47;;;-7.04;87.18
58821;BME280;70670;52.476;13.334;2024-01-11T00:39:28;102518.31;;;-7.03;87.71
58821;BME280;70670;52.476;13.334;2024-01-11T00:41:55;102519.72;;;-7.09;87.64
58821;BME280;70670;52.476;13.334;2024-01-11T00:44:20;102516.09;;;-7.13;87.81
58821;BME280;70670;52.476;13.334;2024-01-11T00:46:46;102516.44;;;-7.05;87.99
58821;BME280;70670;52.476;13.334;2024-01-11T00:49:11;102455.41;;;-7.51;88.16
58821;BME280;70670;52.476;13.334;2024-01-11T00:51:37;102494.94;;;-7.21;88.43
58821;BME280;70670;52.476;13.334;2024-01-11T00:54:03;102495.00;;;-7.38;89.17
58821;BME280;70670;52.476;13.334;2024-01-11T00:56:28;102487.56;;;-7.49;89.83
58821;BME280;70670;52.476;13.334;2024-01-11T00:58:54;102494.47;;;-7.49;90.43
58821;BME280;70670;52.476;13.334;2024-01-11T01:01:20;102498.91;;;-7.66;91.83
58821;BME280;70670;52.476;13.334;2024-01-11T01:03:45;102490.78;;;-7.72;92.56
58821;BME280;70670;52.476;13.334;2024-01-11T01:06:11;102489.84;;;-7.74;92.42
58821;BME280;70670;52.476;13.334;2024-01-11T01:08:36;102482.03;;;-7.74;92.60
58821;BME280;70670;52.476;13.334;2024-01-11T01:11:02;102488.13;;;-7.74;92.95
58821;BME280;70670;52.476;13.334;2024-01-11T01:13:28;102404.50;;;-8.20;92.41
58821;BME280;70670;52.476;13.334;2024-01-11T01:15:54;102463.19;;;-7.70;92.37
58821;BME280;70670;52.476;13.334;2024-01-11T01:18:19;102423.47;;;-7.85;92.44
58821;BME280;70670;52.476;13.334;2024-01-11T01:20:45;102474.25;;;-7.92;92.74
58821;BME280;70670;52.476;13.334;2024-01-11T01:23:11;102470.69;;;-8.12;94.62
58821;BME280;70670;52.476;13.334;2024-01-11T01:25:36;102409.25;;;-8.65;95.07
58821;BME280;70670;52.476;13.334;2024-01-11T01:28:02;102461.66;;;-8.38;95.84
58821;BME280;70670;52.476;13.334;2024-01-11T01:30:28;102473.03;;;-8.52;96.35
58821;BME280;70670;52.476;13.334;2024-01-11T01:32:53;102466.19;;;-8.68;97.51
58821;BME280;70670;52.476;13.334;2024-01-11T01:35:19;102471.22;;;-8.71;98.55
58821;BME280;70670;52.476;13.334;2024-01-11T01:37:45;102408.38;;;-9.16;100.00
58821;BME280;70670;52.476;13.334;2024-01-11T01:40:11;102481.03;;;-8.65;100.00
58821;BME280;70670;52.476;13.334;2024-01-11T01:42:44;102499.25;;;-8.64;100.00
58821;BME280;70670;52.476;13.334;2024-01-11T01:45:10;102430.25;;;-8.95;100.00
58821;BME280;70670;52.476;13.334;2024-01-11T01:47:37;102464.16;;;-8.57;100.00
58821;BME280;70670;52.476;13.334;2024-01-11T01:50:06;102480.00;;;-8.51;100.00
58821;BME280;70670;52.476;13.334;2024-01-11T01:52:33;102482.47;;;-8.54;100.00
58821;BME280;70670;52.476;13.334;2024-01-11T01:55:01;102397.97;;;-9.00;100.00
58821;BME280;70670;52.476;13.334;2024-01-11T01:57:28;102469.34;;;-8.57;100.00
58821;BME280;70670;52.476;13.334;2024-01-11T01:59:56;102472.88;;;-8.55;100.00
58821;BME280;70670;52.476;13.334;2024-01-11T02:02:21;102410.44;;;-8.93;100.00
58821;BME280;70670;52.476;13.334;2024-01-11T02:04:48;102414.81;;;-8.92;100.00
58821;BME280;70670;52.476;13.334;2024-01-11T02:07:13;102482.88;;;-8.47;100.00
58821;BME280;70670;52.476;13.334;2024-01-11T02:09:40;102493.81;;;-8.34;100.00
58821;BME280;70670;52.476;13.334;2024-01-11T02:12:05;102471.34;;;-8.34;100.00
58821;BME280;70670;52.476;13.334;2024-01-11T02:14:32;102495.31;;;-8.22;100.00
58821;BME280;70670;52.476;13.334;2024-01-11T02:16:57;102505.94;;;-8.17;100.00
58821;BME280;70670;52.476;13.334;2024-01-11T02:19:23;102444.50;;;-8.52;100.00
58821;BME280;70670;52.476;13.334;2024-01-11T02:21:50;102512.72;;;-8.03;100.00
58821;BME280;70670;52.476;13.334;2024-01-11T02:24:17;102505.88;;;-8.01;100.00
58821;BME280;70670;52.476;13.334;2024-01-11T02:26:59;102484.28;;;-8.00;100.00
58821;BME280;70670;52.476;13.334;2024-01-11T02:29:26;102508.28;;;-7.87;100.00
58821;BME280;70670;52.476;13.334;2024-01-11T02:31:51;102430.03;;;-8.29;100.00
58821;BME280;70670;52.476;13.334;2024-01-11T02:34:18;102508.56;;;-7.81;99.82
58821;BME280;70670;52.476;13.334;2024-01-11T02:36:43;102514.78;;;-7.78;99.37
58821;BME280;70670;52.476;13.334;2024-01-11T02:39:09;102513.91;;;-7.78;99.45
58821;BME280;70670;52.476;13.334;2024-01-11T02:41:37;102512.13;;;-7.79;99.37
58821;BME280;70670;52.476;13.334;2024-01-11T02:44:03;102514.19;;;-7.72;98.41
58821;BME280;70670;52.476;13.334;2024-01-11T02:46:29;102505.44;;;-7.74;98.57
58821;BME280;70670;52.476;13.334;2024-01-11T02:48:55;102463.88;;;-8.10;98.17
58821;BME280;70670;52.476;13.334;2024-01-11T02:51:20;102502.69;;;-7.77;98.21
58821;BME280;70670;52.476;13.334;2024-01-11T02:53:46;102474.63;;;-7.84;98.05
58821;BME280;70670;52.476;13.334;2024-01-11T02:56:11;102475.16;;;-7.92;97.01
58821;BME280;70670;52.476;13.334;2024-01-11T02:58:37;102411.44;;;-8.38;96.39
58821;BME280;70670;52.476;13.334;2024-01-11T03:01:03;102466.25;;;-8.14;96.48
58821;BME280;70670;52.476;13.334;2024-01-11T03:03:29;102481.75;;;-8.16;96.87
58821;BME280;70670;52.476;13.334;2024-01-11T03:05:54;102476.53;;;-8.16;97.35
58821;BME280;70670;52.476;13.334;2024-01-11T03:08:20;102474.78;;;-8.17;97.84
58821;BME280;70670;52.476;13.334;2024-01-11T03:10:45;102426.75;;;-8.61;98.59
58821;BME280;70670;52.476;13.334;2024-01-11T03:13:11;102472.94;;;-8.37;99.54
58821;BME280;70670;52.476;13.334;2024-01-11T03:15:38;102498.03;;;-8.36;100.00
58821;BME280;70670;52.476;13.334;2024-01-11T03:18:04;102497.22;;;-8.35;100.00
58821;BME280;70670;52.476;13.334;2024-01-11T03:20:29;102446.00;;;-8.74;100.00
58821;BME280;70670;52.476;13.334;2024-01-11T03:22:55;102495.19;;;-8.43;100.00
58821;BME280;70670;52.476;13.334;2024-01-11T03:25:21;102468.44;;;-8.58;100.00
58821;BME280;70670;52.476;13.334;2024-01-11T03:27:47;102481.59;;;-8.55;100.00
58821;BME280;70670;52.476;13.334;2024-01-11T03:30:12;102480.94;;;-8.51;100.00
58821;BME280;70670;52.476;13.334;2024-01-11T03:32:38;102475.13;;;-8.63;100.00
58821;BME280;70670;52.476;13.334;2024-01-11T03:35:07;102462.03;;;-8.64;100.00
58821;BME280;70670;52.476;13.334;2024-01-11T03:37:33;102470.38;;;-8.54;100.00
58821;BME280;70670;52.476;13.334;2024-01-11T03:39:59;102479.59;;;-8.43;100.00
58821;BME280;70670;52.476;13.334;2024-01-11T03:42:24;102475.38;;;-8.40;100.00
58821;BME280;70670;52.476;13.334;2024-01-11T03:44:50;102469.47;;;-8.36;100.00
58821;BME280;70670;52.476;13.334;2024-01-11T03:47:16;102445.25;;;-8.37;100.00
58821;BME280;70670;52.476;13.334;2024-01-11T03:49:41;102454.06;;;-8.33;100.00
58821;BME280;70670;52.476;13.334;2024-01-11T03:52:07;102431.66;;;-8.31;100.00
58821;BME280;70670;52.476;13.334;2024-01-11T03:54:32;102430.25;;;-8.25;100.00
58821;BME280;70670;52.476;13.334;2024-01-11T03:56:59;102429.88;;;-8.32;100.00
58821;BME280;70670;52.476;13.334;2024-01-11T03:59:24;102361.03;;;-8.78;100.00
58821;BME280;70670;52.476;13.334;2024-01-11T04:01:50;102439.22;;;-8.36;100.00
58821;BME280;70670;52.476;13.334;2024-01-11T04:04:16;102353.03;;;-8.82;100.00
58821;BME280;70670;52.476;13.334;2024-01-11T04:06:42;102426.59;;;-8.28;100.00
58821;BME280;70670;52.476;13.334;2024-01-11T04:09:08;102430.63;;;-8.17;100.00
58821;BME280;70670;52.476;13.334;2024-01-11T04:11:34;102424.69;;;-8.14;100.00
58821;BME280;70670;52.476;13.334;2024-01-11T04:13:59;102437.16;;;-8.07;100.00
58821;BME280;70670;52.476;13.334;2024-01-11T04:16:25;102433.59;;;-8.09;100.00
58821;BME280;70670;52.476;13.334;2024-01-11T04:18:50;102439.00;;;-8.05;100.00
58821;BME280;70670;52.476;13.334;2024-01-11T04:21:20;102367.16;;;-8.42;100.00
58821;BME280;70670;52.476;13.334;2024-01-11T04:23:47;102429.84;;;-7.97;100.00
58821;BME280;70670;52.476;13.334;2024-01-11T04:26:12;102418.00;;;-7.92;100.00
58821;BME280;70670;52.476;13.334;2024-01-11T04:28:38;102421.84;;;-8.01;100.00
58821;BME280;70670;52.476;13.334;2024-01-11T04:31:04;102436.47;;;-7.85;100.00
58821;BME280;70670;52.476;13.334;2024-01-11T04:33:29;102444.56;;;-7.79;100.00
58821;BME280;70670;52.476;13.334;2024-01-11T04:35:55;102439.38;;;-7.79;100.00
58821;BME280;70670;52.476;13.334;2024-01-11T04:38:20;102418.56;;;-7.79;100.00
58821;BME280;70670;52.476;13.334;2024-01-11T04:40:46;102359.22;;;-8.07;100.00
58821;BME280;70670;52.476;13.334;2024-01-11T04:43:12;102424.00;;;-7.55;100.00
58821;BME280;70670;52.476;13.334;2024-01-11T04:45:38;102446.72;;;-7.51;100.00
58821;BME280;70670;52.476;13.334;2024-01-11T04:48:03;102447.78;;;-7.48;100.00
58821;BME280;70670;52.476;13.334;2024-01-11T04:50:29;102447.97;;;-7.43;100.00
58821;BME280;70670;52.476;13.334;2024-01-11T04:52:55;102421.63;;;-7.51;100.00
58821;BME280;70670;52.476;13.334;2024-01-11T04:55:20;102410.25;;;-7.33;100.00
58821;BME280;70670;52.476;13.334;2024-01-11T04:57:46;102413.97;;;-7.28;100.00
58821;BME280;70670;52.476;13.334;2024-01-11T05:00:12;102419.19;;;-7.28;100.00
58821;BME280;70670;52.476;13.334;2024-01-11T05:02:37;102420.06;;;-7.28;100.00
58821;BME280;70670;52.476;13.334;2024-01-11T05:05:03;102368.94;;;-7.27;100.00
58821;BME280;70670;52.476;13.334;2024-01-11T05:07:29;102385.75;;;-7.19;100.00
58821;BME280;70670;52.476;13.334;2024-01-11T05:09:55;102368.44;;;-7.19;100.00
58821;BME280;70670;52.476;13.334;2024-01-11T05:12:20;102364.22;;;-6.96;100.00
58821;BME280;70670;52.476;13.334;2024-01-11T05:14:46;102310.91;;;-7.46;100.00
58821;BME280;70670;52.476;13.334;2024-01-11T05:17:12;102335.72;;;-7.52;100.00
58821;BME280;70670;52.476;13.334;2024-01-11T05:19:38;102349.06;;;-7.45;100.00
58821;BME280;70670;52.476;13.334;2024-01-11T05:22:03;102398.91;;;-7.16;100.00
58821;BME280;70670;52.476;13.334;2024-01-11T05:24:29;102406.41;;;-7.03;100.00
58821;BME280;70670;52.476;13.334;2024-01-11T05:26:55;102357.13;;;-7.19;100.00
58821;BME280;70670;52.476;13.334;2024-01-11T05:29:20;102398.75;;;-7.00;100.00
58821;BME280;70670;52.476;13.334;2024-01-11T05:31:46;102312.66;;;-7.45;100.00
58821;BME280;70670;52.476;13.334;2024-01-11T05:34:12;102328.69;;;-7.35;100.00
58821;BME280;70670;52.476;13.334;2024-01-11T05:36:38;102414.19;;;-6.83;100.00
58821;BME280;70670;52.476;13.334;2024-01-11T05:39:04;102421.31;;;-6.79;100.00
58821;BME280;70670;52.476;13.334;2024-01-11T05:41:30;102412.81;;;-6.75;100.00
58821;BME280;70670;52.476;13.334;2024-01-11T05:43:56;102404.31;;;-6.71;100.00
58821;BME280;70670;52.476;13.334;2024-01-11T05:46:21;102395.28;;;-6.79;100.00
58821;BME280;70670;52.476;13.334;2024-01-11T05:48:47;102389.44;;;-6.74;100.00
58821;BME280;70670;52.476;13.334;2024-01-11T05:51:13;102386.97;;;-6.71;100.00
58821;BME280;70670;52.476;13.334;2024-01-11T05:53:39;102390.84;;;-6.61;100.00
58821;BME280;70670;52.476;13.334;2024-01-11T05:56:10;102390.06;;;-6.58;100.00
58821;BME280;70670;52.476;13.334;2024-01-11T05:58:36;102387.56;;;-6.57;100.00
58821;BME280;70670;52.476;13.334;2024-01-11T06:01:03;102391.84;;;-6.57;100.00
58821;BME280;70670;52.476;13.334;2024-01-11T06:03:29;102388.34;;;-6.58;100.00
58821;BME280;70670;52.476;13.334;2024-01-11T06:05:55;102386.78;;;-6.54;100.00
58821;BME280;70670;52.476;13.334;2024-01-11T06:08:21;102391.94;;;-6.56;100.00
58821;BME280;70670;52.476;13.334;2024-01-11T06:10:46;102408.81;;;-6.46;100.00
58821;BME280;70670;52.476;13.334;2024-01-11T06:13:12;102416.00;;;-6.40;100.00
58821;BME280;70670;52.476;13.334;2024-01-11T06:15:38;102395.72;;;-6.48;100.00
58821;BME280;70670;52.476;13.334;2024-01-11T06:18:04;102361.50;;;-6.57;100.00
58821;BME280;70670;52.476;13.334;2024-01-11T06:20:30;102390.38;;;-6.30;100.00
58821;BME280;70670;52.476;13.334;2024-01-11T06:22:55;102292.09;;;-6.77;100.00
58821;BME280;70670;52.476;13.334;2024-01-11T06:25:21;102364.13;;;-6.34;100.00
58821;BME280;70670;52.476;13.334;2024-01-11T06:27:47;102300.28;;;-6.68;100.00
58821;BME280;70670;52.476;13.334;2024-01-11T06:30:13;102374.75;;;-6.30;100.00
58821;BME280;70670;52.476;13.334;2024-01-11T06:32:38;102334.88;;;-6.50;100.00
58821;BME280;70670;52.476;13.334;2024-01-11T06:35:04;102389.88;;;-6.21;100.00
58821;BME280;70670;52.476;13.334;2024-01-11T06:37:30;102329.22;;;-6.39;100.00
58821;BME280;70670;52.476;13.334;2024-01-11T06:39:56;102382.47;;;-6.10;100.00
58821;BME280;70670;52.476;13.334;2024-01-11T06:42:22;102370.31;;;-6.10;100.00
58821;BME280;70670;52.476;13.334;2024-01-11T06:44:48;102362.00;;;-6.01;100.00
58821;BME280;70670;52.476;13.334;2024-01-11T06:47:13;102385.53;;;-5.98;100.00
58821;BME280;70670;52.476;13.334;2024-01-11T06:49:40;102368.94;;;-6.02;100.00
58821;BME280;70670;52.476;13.334;2024-01-11T06:52:06;102341.66;;;-6.10;100.00
58821;BME280;70670;52.476;13.334;2024-01-11T06:54:32;102371.25;;;-5.85;100.00
58821;BME280;70670;52.476;13.334;2024-01-11T06:56:58;102312.50;;;-6.22;100.00
58821;BME280;70670;52.476;13.334;2024-01-11T06:59:23;102341.03;;;-6.04;100.00
58821;BME280;70670;52.476;13.334;2024-01-11T07:01:49;102296.41;;;-6.34;100.00
58821;BME280;70670;52.476;13.334;2024-01-11T07:04:15;102352.19;;;-6.07;100.00
58821;BME280;70670;52.476;13.334;2024-01-11T07:06:41;102286.78;;;-6.37;100.00
58821;BME280;70670;52.476;13.334;2024-01-11T07:09:06;102342.66;;;-6.06;100.00
58821;BME280;70670;52.476;13.334;2024-01-11T07:11:32;102355.22;;;-5.96;100.00
58821;BME280;70670;52.476;13.334;2024-01-11T07:13:58;102344.50;;;-6.04;100.00
58821;BME280;70670;52.476;13.334;2024-01-11T07:16:24;102369.28;;;-5.92;100.00
58821;BME280;70670;52.476;13.334;2024-01-11T07:18:49;102292.00;;;-6.37;100.00
58821;BME280;70670;52.476;13.334;2024-01-11T07:21:22;102373.63;;;-5.91;100.00
58821;BME280;70670;52.476;13.334;2024-01-11T07:24:00;102361.28;;;-5.97;100.00
58821;BME280;70670;52.476;13.334;2024-01-11T07:26:25;102349.72;;;-6.04;100.00
58821;BME280;70670;52.476;13.334;2024-01-11T07:28:51;102297.97;;;-6.39;100.00
58821;BME280;70670;52.476;13.334;2024-01-11T07:31:17;102358.22;;;-5.85;100.00
58821;BME280;70670;52.476;13.334;2024-01-11T07:33:43;102343.69;;;-5.79;100.00
58821;BME280;70670;52.476;13.334;2024-01-11T07:36:09;102347.78;;;-5.85;100.00
58821;BME280;70670;52.476;13.334;2024-01-11T07:38:35;102349.53;;;-5.86;100.00
58821;BME280;70670;52.476;13.334;2024-01-11T07:41:00;102365.16;;;-5.86;100.00
58821;BME280;70670;52.476;13.334;2024-01-11T07:43:27;102248.72;;;-6.56;100.00
58821;BME280;70670;52.476;13.334;2024-01-11T07:45:54;102368.56;;;-5.87;100.00
58821;BME280;70670;52.476;13.334;2024-01-11T07:48:22;102370.63;;;-5.78;100.00
58821;BME280;70670;52.476;13.334;2024-01-11T07:50:48;102375.03;;;-5.77;100.00
58821;BME280;70670;52.476;13.334;2024-01-11T07:53:14;102378.72;;;-5.72;100.00
58821;BME280;70670;52.476;13.334;2024-01-11T07:55:40;102374.53;;;-5.67;100.00
58821;BME280;70670;52.476;13.334;2024-01-11T07:58:06;102291.66;;;-6.00;100.00
58821;BME280;70670;52.476;13.334;2024-01-11T08:00:33;102358.41;;;-5.57;100.00
58821;BME280;70670;52.476;13.334;2024-01-11T08:02:59;102347.38;;;-5.50;100.00
58821;BME280;70670;52.476;13.334;2024-01-11T08:05:25;102342.88;;;-5.54;100.00
58821;BME280;70670;52.476;13.334;2024-01-11T08:07:51;102322.47;;;-5.65;100.00
58821;BME280;70670;52.476;13.334;2024-01-11T08:10:17;102331.09;;;-5.66;100.00
58821;BME280;70670;52.476;13.334;2024-01-11T08:12:42;102346.97;;;-5.60;100.00
58821;BME280;70670;52.476;13.334;2024-01-11T08:15:08;102337.69;;;-5.54;100.00
58821;BME280;70670;52.476;13.334;2024-01-11T08:17:47;102347.59;;;-5.44;100.00
58821;BME280;70670;52.476;13.334;2024-01-11T08:20:13;102352.16;;;-5.38;100.00
58821;BME280;70670;52.476;13.334;2024-01-11T08:22:42;102355.50;;;-5.42;100.00
58821;BME280;70670;52.476;13.334;2024-01-11T08:25:09;102341.72;;;-5.38;100.00
58821;BME280;70670;52.476;13.334;2024-01-11T08:27:35;102350.47;;;-5.36;100.00
58821;BME280;70670;52.476;13.334;2024-01-11T08:30:01;102341.81;;;-5.35;100.00
58821;BME280;70670;52.476;13.334;2024-01-11T08:32:27;102335.56;;;-5.40;100.00
58821;BME280;70670;52.476;13.334;2024-01-11T08:34:56;102349.75;;;-5.32;100.00
58821;BME280;70670;52.476;13.334;2024-01-11T08:37:22;102343.81;;;-5.28;100.00
58821;BME280;70670;52.476;13.334;2024-01-11T08:39:49;102332.19;;;-5.12;100.00
58821;BME280;70670;52.476;13.334;2024-01-11T08:42:15;102328.97;;;-5.05;100.00
58821;BME280;70670;52.476;13.334;2024-01-11T08:44:42;102287.50;;;-5.21;100.00
58821;BME280;70670;52.476;13.334;2024-01-11T08:47:08;102266.84;;;-5.40;100.00
58821;BME280;70670;52.476;13.334;2024-01-11T08:49:41;102322.78;;;-5.07;100.00
58821;BME280;70670;52.476;13.334;2024-01-11T08:52:07;102339.63;;;-4.99;100.00
58821;BME280;70670;52.476;13.334;2024-01-11T08:54:33;102338.56;;;-5.04;100.00
58821;BME280;70670;52.476;13.334;2024-01-11T08:56:59;102326.72;;;-4.94;100.00
58821;BME280;70670;52.476;13.334;2024-01-11T08:59:25;102330.00;;;-5.00;100.00
58821;BME280;70670;52.476;13.334;2024-01-11T09:01:52;102323.84;;;-5.02;100.00
58821;BME280;70670;52.476;13.334;2024-01-11T09:04:18;102333.59;;;-4.96;100.00
58821;BME280;70670;52.476;13.334;2024-01-11T09:06:44;102320.50;;;-4.98;100.00
58821;BME280;70670;52.476;13.334;2024-01-11T09:09:10;102318.28;;;-4.87;100.00
58821;BME280;70670;52.476;13.334;2024-01-11T09:11:36;102282.53;;;-4.88;100.00
58821;BME280;70670;52.476;13.334;2024-01-11T09:14:02;102285.03;;;-4.91;100.00
58821;BME280;70670;52.476;13.334;2024-01-11T09:16:30;102244.44;;;-5.08;100.00
58821;BME280;70670;52.476;13.334;2024-01-11T09:18:56;102293.34;;;-4.77;100.00
58821;BME280;70670;52.476;13.334;2024-01-11T09:21:21;102300.44;;;-4.73;100.00
58821;BME280;70670;52.476;13.334;2024-01-11T09:23:47;102291.84;;;-4.69;100.00
58821;BME280;70670;52.476;13.334;2024-01-11T09:26:13;102295.47;;;-4.65;100.00
58821;BME280;70670;52.476;13.334;2024-01-11T09:28:39;102303.19;;;-4.68;100.00
58821;BME280;70670;52.476;13.334;2024-01-11T09:31:04;102318.75;;;-4.72;100.00
58821;BME280;70670;52.476;13.334;2024-01-11T09:33:30;102332.75;;;-4.70;100.00
58821;BME280;70670;52.476;13.334;2024-01-11T09:35:55;102321.22;;;-4.76;100.00
58821;BME280;70670;52.476;13.334;2024-01-11T09:38:22;102194.00;;;-5.34;100.00
58821;BME280;70670;52.476;13.334;2024-01-11T09:40:59;102306.75;;;-4.66;100.00
58821;BME280;70670;52.476;13.334;2024-01-11T09:43:27;102302.19;;;-4.72;100.00
58821;BME280;70670;52.476;13.334;2024-01-11T09:45:53;102298.84;;;-4.68;100.00
58821;BME280;70670;52.476;13.334;2024-01-11T09:48:20;102280.72;;;-4.90;100.00
58821;BME280;70670;52.476;13.334;2024-01-11T09:50:46;102321.38;;;-4.72;100.00
58821;BME280;70670;52.476;13.334;2024-01-11T09:53:14;102240.38;;;-5.26;100.00
58821;BME280;70670;52.476;13.334;2024-01-11T09:55:41;102320.19;;;-4.81;100.00
58821;BME280;70670;52.476;13.334;2024-01-11T09:58:07;102328.03;;;-4.81;100.00
58821;BME280;70670;52.476;13.334;2024-01-11T10:00:34;102330.63;;;-4.81;100.00
58821;BME280;70670;52.476;13.334;2024-01-11T10:03:00;102340.22;;;-4.80;100.00
58821;BME280;70670;52.476;13.334;2024-01-11T10:05:27;102325.91;;;-4.91;100.00
58821;BME280;70670;52.476;13.334;2024-01-11T10:07:52;102338.34;;;-4.84;100.00
58821;BME280;70670;52.476;13.334;2024-01-11T10:10:18;102325.91;;;-4.91;100.00
58821;BME280;70670;52.476;13.334;2024-01-11T10:12:44;102320.63;;;-4.95;100.00
58821;BME280;70670;52.476;13.334;2024-01-11T10:15:10;102318.00;;;-4.95;100.00
58821;BME280;70670;52.476;13.334;2024-01-11T10:17:38;102332.09;;;-4.89;100.00
58821;BME280;70670;52.476;13.334;2024-01-11T10:20:05;102307.38;;;-4.99;100.00
58821;BME280;70670;52.476;13.334;2024-01-11T10:22:36;102320.19;;;-4.81;100.00
58821;BME280;70670;52.476;13.334;2024-01-11T10:25:10;102326.31;;;-4.79;100.00
58821;BME280;70670;52.476;13.334;2024-01-11T10:27:43;102312.97;;;-4.88;100.00
58821;BME280;70670;52.476;13.334;2024-01-11T10:30:10;102273.41;;;-5.01;100.00
58821;BME280;70670;52.476;13.334;2024-01-11T10:32:39;102252.53;;;-5.01;100.00
58821;BME280;70670;52.476;13.334;2024-01-11T10:35:05;102261.72;;;-4.86;100.00
58821;BME280;70670;52.476;13.334;2024-01-11T10:37:31;102270.28;;;-4.90;100.00
58821;BME280;70670;52.476;13.334;2024-01-11T10:40:05;102290.50;;;-4.83;100.00
58821;BME280;70670;52.476;13.334;2024-01-11T10:42:42;102281.78;;;-4.84;100.00
58821;BME280;70670;52.476;13.334;2024-01-11T10:45:16;102269.28;;;-4.94;100.00
58821;BME280;70670;52.476;13.334;2024-01-11T10:47:51;102286.34;;;-4.78;100.00
58821;BME280;70670;52.476;13.334;2024-01-11T10:50:19;102289.13;;;-4.72;100.00
58821;BME280;70670;52.476;13.334;2024-01-11T10:52:56;102290.56;;;-4.82;100.00
58821;BME280;70670;52.476;13.334;2024-01-11T10:55:28;102283.53;;;-4.84;100.00
58821;BME280;70670;52.476;13.334;2024-01-11T10:57:56;102290.19;;;-4.67;100.00
58821;BME280;70670;52.476;13.334;2024-01-11T11:00:24;102276.91;;;-4.73;100.00
58821;BME280;70670;52.476;13.334;2024-01-11T11:02:51;102272.69;;;-4.70;100.00
58821;BME280;70670;52.476;13.334;2024-01-11T11:05:18;102286.34;;;-4.51;100.00
58821;BME280;70670;52.476;13.334;2024-01-11T11:07:44;102299.34;;;-4.53;100.00
58821;BME280;70670;52.476;13.334;2024-01-11T11:10:11;102288.91;;;-4.53;100.00
58821;BME280;70670;52.476;13.334;2024-01-11T11:12:38;102205.75;;;-4.95;100.00
58821;BME280;70670;52.476;13.334;2024-01-11T11:15:06;102282.00;;;-4.51;100.00
58821;BME280;70670;52.476;13.334;2024-01-11T11:17:32;102279.53;;;-4.46;100.00
58821;BME280;70670;52.476;13.334;2024-01-11T11:19:58;102277.06;;;-4.41;100.00
58821;BME280;70670;52.476;13.334;2024-01-11T11:22:27;102280.44;;;-4.44;100.00
58821;BME280;70670;52.476;13.334;2024-01-11T11:25:03;102266.19;;;-4.55;100.00
58821;BME280;70670;52.476;13.334;2024-01-11T11:27:31;102309.38;;;-4.39;100.00
58821;BME280;70670;52.476;13.334;2024-01-11T11:29:56;102246.59;;;-4.68;100.00
58821;BME280;70670;52.476;13.334;2024-01-11T11:32:36;102299.94;;;-4.34;100.00
58821;BME280;70670;52.476;13.334;2024-01-11T11:35:02;102247.09;;;-4.53;100.00
58821;BME280;70670;52.476;13.334;2024-01-11T11:37:29;102309.00;;;-4.23;100.00
58821;BME280;70670;52.476;13.334;2024-01-11T11:39:55;102310.75;;;-4.22;100.00
58821;BME280;70670;52.476;13.334;2024-01-11T11:42:22;102308.13;;;-4.24;100.00
58821;BME280;70670;52.476;13.334;2024-01-11T11:44:49;102317.25;;;-4.09;100.00
58821;BME280;70670;52.476;13.334;2024-01-11T11:47:22;102319.94;;;-4.08;100.00
58821;BME280;70670;52.476;13.334;2024-01-11T11:52:32;102295.56;;;-4.07;100.00
58821;BME280;70670;52.476;13.334;2024-01-11T11:54:59;102300.94;;;-4.01;100.00
58821;BME280;70670;52.476;13.334;2024-01-11T11:57:27;102279.91;;;-4.05;100.00
58821;BME280;70670;52.476;13.334;2024-01-11T11:59:58;102296.81;;;-3.92;100.00
58821;BME280;70670;52.476;13.334;2024-01-11T12:02:26;102240.16;;;-4.24;100.00
58821;BME280;70670;52.476;13.334;2024-01-11T12:04:53;102287.41;;;-3.87;100.00
58821;BME280;70670;52.476;13.334;2024-01-11T12:07:22;102228.22;;;-4.14;100.00
58821;BME280;70670;52.476;13.334;2024-01-11T12:09:49;102297.28;;;-3.77;100.00
58821;BME280;70670;52.476;13.334;2024-01-11T12:12:16;102287.75;;;-3.75;100.00
58821;BME280;70670;52.476;13.334;2024-01-11T12:14:46;102223.22;;;-4.06;100.00
58821;BME280;70670;52.476;13.334;2024-01-11T12:17:12;102280.81;;;-3.73;100.00
58821;BME280;70670;52.476;13.334;2024-01-11T12:19:37;102263.13;;;-3.83;100.00
58821;BME280;70670;52.476;13.334;2024-01-11T12:22:03;102229.44;;;-4.03;100.00
58821;BME280;70670;52.476;13.334;2024-01-11T12:24:29;102283.75;;;-3.62;100.00
58821;BME280;70670;52.476;13.334;2024-01-11T12:26:56;102289.97;;;-3.59;100.00
58821;BME280;70670;52.476;13.334;2024-01-11T12:29:25;102286.59;;;-3.55;100.00
58821;BME280;70670;52.476;13.334;2024-01-11T12:31:53;102278.75;;;-3.53;100.00